createdAt,value
2023-03-13T00:01:32.284Z,6.72
2023-03-13T00:04:00.538Z,6.62
2023-03-13T00:06:34.626Z,6.62
2023-03-13T00:09:05.971Z,5.90
2023-03-13T00:11:34.001Z,9.17
2023-03-13T00:14:04.564Z,5.62
2023-03-13T00:16:34.682Z,13.27
2023-03-13T00:19:04.001Z,6.80
2023-03-13T00:21:32.046Z,6.68
2023-03-13T00:24:00.473Z,7.40
2023-03-13T00:26:30.238Z,7.10
2023-03-13T00:28:58.337Z,7.47
2023-03-13T00:31:31.610Z,7.90
2023-03-13T00:34:02.318Z,5.72
2023-03-13T00:36:33.168Z,5.72
2023-03-13T00:39:02.897Z,7.10
2023-03-13T00:41:33.758Z,7.72
2023-03-13T00:44:01.975Z,5.93
2023-03-13T00:46:32.012Z,5.97
2023-03-13T00:48:59.989Z,6.28
2023-03-13T00:51:29.023Z,6.03
2023-03-13T00:54:00.574Z,7.30
2023-03-13T00:56:29.749Z,4.95
2023-03-13T00:58:59.616Z,6.20
2023-03-13T01:01:31.389Z,6.87
2023-03-13T01:04:05.659Z,4.87
2023-03-13T01:06:35.887Z,6.32
2023-03-13T01:09:05.900Z,7.32
2023-03-13T01:11:39.460Z,5.53
2023-03-13T01:14:11.547Z,5.25
2023-03-13T01:16:40.111Z,5.00
2023-03-13T01:19:15.101Z,4.90
2023-03-13T01:21:44.943Z,5.15
2023-03-13T01:24:13.175Z,5.32
2023-03-13T01:26:41.263Z,5.12
2023-03-13T01:29:09.045Z,7.43
2023-03-13T01:31:37.467Z,5.78
2023-03-13T01:34:08.076Z,5.47
2023-03-13T01:36:37.666Z,4.43
2023-03-13T01:39:07.089Z,5.70
2023-03-13T01:41:35.334Z,4.75
2023-03-13T01:44:03.482Z,5.12
2023-03-13T01:46:32.258Z,6.07
2023-03-13T01:49:11.582Z,4.40
2023-03-13T01:51:55.734Z,4.47
2023-03-13T01:54:31.130Z,6.20
2023-03-13T01:57:06.619Z,6.40
2023-03-13T01:59:42.686Z,7.43
2023-03-13T02:02:11.874Z,4.60
2023-03-13T02:04:45.939Z,4.75
2023-03-13T02:07:39.248Z,3.85
2023-03-13T02:10:10.467Z,3.85
2023-03-13T02:12:41.094Z,5.28
2023-03-13T02:15:16.448Z,5.27
2023-03-13T02:17:48.916Z,4.60
2023-03-13T02:20:21.908Z,3.95
2023-03-13T02:22:58.842Z,4.00
2023-03-13T02:25:56.230Z,4.65
2023-03-13T02:28:33.836Z,4.93
2023-03-13T02:31:02.784Z,3.95
2023-03-13T02:33:35.991Z,4.90
2023-03-13T02:36:06.054Z,4.70
2023-03-13T02:38:39.354Z,5.40
2023-03-13T02:41:08.858Z,5.47
2023-03-13T02:43:38.586Z,5.22
2023-03-13T02:46:12.029Z,4.97
2023-03-13T02:48:45.465Z,4.22
2023-03-13T02:51:29.749Z,4.50
2023-03-13T02:54:02.101Z,4.50
2023-03-13T02:56:34.482Z,4.15
2023-03-13T03:01:31.197Z,3.83
2023-03-13T03:03:59.192Z,4.62
2023-03-13T03:06:27.539Z,4.28
2023-03-13T03:08:56.637Z,4.75
2023-03-13T03:11:25.122Z,4.25
2023-03-13T03:13:53.584Z,5.47
2023-03-13T03:16:22.251Z,9.48
2023-03-13T03:18:50.430Z,5.53
2023-03-13T03:21:18.385Z,3.87
2023-03-13T03:23:46.472Z,4.85
2023-03-13T03:26:14.264Z,3.78
2023-03-13T03:28:42.591Z,6.50
2023-03-13T03:31:13.969Z,4.43
2023-03-13T03:33:42.907Z,3.90
2023-03-13T03:36:17.448Z,3.97
2023-03-13T03:38:46.286Z,4.22
2023-03-13T03:41:15.606Z,5.47
2023-03-13T03:43:43.882Z,4.28
2023-03-13T03:46:12.074Z,4.05
2023-03-13T03:48:40.498Z,5.35
2023-03-13T03:51:09.364Z,3.60
2023-03-13T03:53:37.805Z,4.62
2023-03-13T03:56:06.269Z,4.35
2023-03-13T03:58:34.633Z,3.90
2023-03-13T04:01:04.446Z,3.92
2023-03-13T04:03:33.085Z,4.18
2023-03-13T04:06:01.195Z,3.72
2023-03-13T04:08:29.818Z,6.22
2023-03-13T04:11:00.370Z,4.07
2023-03-13T04:13:28.720Z,4.87
2023-03-13T04:15:58.708Z,5.73
2023-03-13T04:18:26.756Z,4.30
2023-03-13T04:21:02.690Z,4.95
2023-03-13T04:23:31.661Z,4.57
2023-03-13T04:26:00.120Z,4.87
2023-03-13T04:28:28.178Z,5.80
2023-03-13T04:30:58.355Z,5.28
2023-03-13T04:33:27.199Z,6.15
2023-03-13T04:35:55.352Z,4.28
2023-03-13T04:38:24.747Z,4.65
2023-03-13T04:40:52.835Z,5.62
2023-03-13T04:43:21.355Z,3.85
2023-03-13T04:45:54.614Z,6.28
2023-03-13T04:48:22.844Z,4.68
2023-03-13T04:50:51.268Z,4.53
2023-03-13T04:53:21.672Z,5.80
2023-03-13T04:55:50.502Z,4.18
2023-03-13T04:58:20.522Z,3.85
2023-03-13T05:00:48.746Z,4.60
2023-03-13T05:03:16.843Z,4.82
2023-03-13T05:05:45.846Z,4.65
2023-03-13T05:08:14.609Z,5.20
2023-03-13T05:10:43.365Z,6.93
2023-03-13T05:13:11.656Z,5.60
2023-03-13T05:15:40.248Z,5.28
2023-03-13T05:18:08.241Z,4.40
2023-03-13T05:20:37.418Z,5.53
2023-03-13T05:23:06.108Z,5.03
2023-03-13T05:25:34.887Z,6.93
2023-03-13T05:28:03.780Z,5.37
2023-03-13T05:30:32.062Z,4.78
2023-03-13T05:33:01.623Z,5.22
2023-03-13T05:35:30.989Z,4.85
2023-03-13T05:37:59.215Z,5.15
2023-03-13T05:40:27.237Z,5.20
2023-03-13T05:42:55.515Z,4.53
2023-03-13T05:45:23.651Z,5.25
2023-03-13T05:47:51.959Z,6.62
2023-03-13T05:50:20.446Z,4.28
2023-03-13T05:52:49.372Z,6.12
2023-03-13T05:55:18.629Z,5.95
2023-03-13T05:57:48.418Z,4.97
2023-03-13T06:00:19.911Z,6.03
2023-03-13T06:02:48.728Z,8.38
2023-03-13T06:05:21.405Z,6.55
2023-03-13T06:07:50.890Z,8.23
2023-03-13T06:10:19.059Z,6.85
2023-03-13T06:12:53.860Z,9.52
2023-03-13T06:15:23.723Z,7.45
2023-03-13T06:17:52.410Z,6.65
2023-03-13T06:20:20.352Z,8.80
2023-03-13T06:22:48.524Z,5.25
2023-03-13T06:25:16.451Z,8.23
2023-03-13T06:27:44.388Z,6.50
2023-03-13T06:30:13.078Z,9.43
2023-03-13T06:32:41.989Z,6.30
2023-03-13T06:35:10.111Z,7.18
2023-03-13T06:37:39.017Z,5.20
2023-03-13T06:40:07.569Z,8.10
2023-03-13T06:42:36.998Z,7.97
2023-03-13T06:45:05.430Z,7.75
2023-03-13T06:47:33.236Z,8.23
2023-03-13T06:50:01.306Z,5.95
2023-03-13T06:52:42.726Z,6.82
2023-03-13T06:55:12.204Z,5.80
2023-03-13T06:57:40.872Z,9.15
2023-03-13T07:00:13.094Z,6.55
2023-03-13T07:02:41.430Z,7.57
2023-03-13T07:05:09.537Z,7.05
2023-03-13T07:07:42.571Z,9.38
2023-03-13T07:10:12.261Z,7.20
2023-03-13T07:12:40.170Z,7.75
2023-03-13T07:15:08.536Z,6.03
2023-03-13T07:17:37.528Z,7.40
2023-03-13T07:20:07.578Z,7.43
2023-03-13T07:22:38.299Z,9.45
2023-03-13T07:25:07.696Z,9.38
2023-03-13T07:27:35.820Z,6.60
2023-03-13T07:30:06.876Z,9.37
2023-03-13T07:32:35.423Z,8.18
2023-03-13T07:35:04.887Z,9.85
2023-03-13T07:37:33.132Z,7.07
2023-03-13T07:40:01.345Z,7.22
2023-03-13T07:42:29.425Z,7.40
2023-03-13T07:44:57.657Z,8.85
2023-03-13T07:47:25.858Z,12.27
2023-03-13T07:49:54.093Z,8.90
2023-03-13T07:52:23.149Z,8.52
2023-03-13T07:54:51.996Z,7.90
2023-03-13T07:57:20.828Z,10.10
2023-03-13T07:59:49.486Z,8.02
2023-03-13T08:02:17.888Z,8.10
2023-03-13T08:04:46.136Z,7.72
2023-03-13T08:07:14.201Z,9.65
2023-03-13T08:09:42.196Z,9.57
2023-03-13T08:12:10.723Z,7.35
2023-03-13T08:14:38.555Z,8.30
2023-03-13T08:17:06.440Z,8.02
2023-03-13T08:19:34.881Z,9.75
2023-03-13T08:22:03.055Z,8.55
2023-03-13T08:24:30.816Z,8.95
2023-03-13T08:26:59.019Z,10.70
2023-03-13T08:29:27.281Z,10.23
2023-03-13T08:31:55.833Z,8.75
2023-03-13T08:34:25.376Z,9.70
2023-03-13T08:36:53.202Z,8.50
2023-03-13T08:39:21.529Z,10.68
2023-03-13T08:41:49.707Z,10.93
2023-03-13T08:44:20.156Z,9.93
2023-03-13T08:46:49.465Z,10.97
2023-03-13T08:49:17.957Z,10.65
2023-03-13T08:51:46.770Z,9.43
2023-03-13T08:54:14.665Z,9.02
2023-03-13T08:56:43.737Z,9.18
2023-03-13T08:59:11.580Z,7.47
2023-03-13T09:01:39.454Z,11.73
2023-03-13T09:04:08.294Z,10.18
2023-03-13T09:06:38.186Z,13.18
2023-03-13T09:09:07.638Z,11.23
2023-03-13T09:11:39.505Z,11.68
2023-03-13T09:14:08.998Z,8.75
2023-03-13T09:16:37.668Z,9.98
2023-03-13T09:19:05.996Z,11.90
2023-03-13T09:21:36.264Z,9.25
2023-03-13T09:24:04.966Z,8.13
2023-03-13T09:26:32.819Z,8.13
2023-03-13T09:29:01.499Z,8.45
2023-03-13T09:31:31.338Z,9.57
2023-03-13T09:34:00.670Z,7.90
2023-03-13T09:36:28.833Z,8.70
2023-03-13T09:38:59.896Z,11.88
2023-03-13T09:41:34.154Z,8.65
2023-03-13T09:44:18.810Z,8.60
2023-03-13T09:47:08.100Z,8.73
2023-03-13T09:49:54.444Z,9.10
2023-03-13T09:52:40.555Z,11.98
2023-03-13T09:55:21.169Z,7.93
2023-03-13T09:57:56.912Z,8.75
2023-03-13T10:00:36.875Z,8.10
2023-03-13T10:03:08.129Z,11.85
2023-03-13T10:05:36.971Z,6.53
2023-03-13T10:08:24.018Z,7.35
2023-03-13T10:11:07.746Z,9.45
2023-03-13T10:13:46.170Z,8.18
2023-03-13T10:16:19.303Z,9.88
2023-03-13T10:18:53.536Z,7.20
2023-03-13T10:21:25.079Z,8.63
2023-03-13T10:24:02.806Z,8.05
2023-03-13T10:26:34.576Z,7.10
2023-03-13T10:29:35.705Z,9.43
2023-03-13T10:32:08.796Z,6.82
2023-03-13T10:34:53.678Z,7.03
2023-03-13T10:37:40.424Z,9.15
2023-03-13T10:40:27.017Z,7.22
2023-03-13T10:43:03.035Z,10.38
2023-03-13T10:45:36.760Z,9.38
2023-03-13T10:48:27.013Z,6.87
2023-03-13T10:50:57.621Z,5.75
2023-03-13T10:53:36.779Z,5.78
2023-03-13T10:56:12.317Z,6.75
2023-03-13T10:58:48.967Z,6.07
2023-03-13T11:01:22.500Z,5.80
2023-03-13T11:03:53.906Z,6.05
2023-03-13T11:06:31.319Z,9.95
2023-03-13T11:09:05.280Z,8.75
2023-03-13T11:11:48.545Z,6.62
2023-03-13T11:14:21.791Z,5.35
2023-03-13T11:17:03.333Z,6.90
2023-03-13T11:22:49.908Z,5.40
2023-03-13T11:25:36.204Z,4.90
2023-03-13T11:28:16.626Z,5.62
2023-03-13T11:30:54.226Z,6.32
2023-03-13T11:33:36.222Z,5.95
2023-03-13T11:36:25.850Z,6.85
2023-03-13T11:39:03.528Z,5.53
2023-03-13T11:41:56.623Z,6.93
2023-03-13T11:44:31.407Z,4.82
2023-03-13T11:47:05.041Z,5.15
2023-03-13T11:49:54.576Z,6.95
2023-03-13T11:52:32.708Z,4.00
2023-03-13T11:55:19.568Z,4.78
2023-03-13T11:58:07.123Z,5.50
2023-03-13T12:00:48.392Z,5.72
2023-03-13T12:03:34.253Z,3.67
2023-03-13T12:06:03.775Z,5.80
2023-03-13T12:08:48.330Z,4.43
2023-03-13T12:11:22.819Z,5.65
2023-03-13T12:13:59.702Z,4.75
2023-03-13T12:16:48.468Z,4.07
2023-03-13T12:19:26.141Z,5.00
2023-03-13T12:22:02.642Z,3.70
2023-03-13T12:24:38.322Z,4.03
2023-03-13T12:27:16.809Z,3.92
2023-03-13T12:30:01.801Z,7.72
2023-03-13T12:33:06.411Z,3.53
2023-03-13T12:35:38.006Z,6.72
2023-03-13T12:38:10.707Z,3.87
2023-03-13T12:40:46.274Z,5.68
2023-03-13T12:43:31.978Z,9.48
2023-03-13T12:46:01.301Z,3.97
2023-03-13T12:48:30.665Z,4.90
2023-03-13T12:51:10.050Z,3.42
2023-03-13T12:54:16.695Z,4.75
2023-03-13T12:57:02.982Z,3.00
2023-03-13T12:59:38.883Z,5.43
2023-03-13T13:02:26.436Z,4.05
2023-03-13T13:04:57.545Z,3.62
2023-03-13T13:07:34.863Z,4.30
2023-03-13T13:10:17.924Z,3.65
2023-03-13T13:12:47.939Z,2.87
2023-03-13T13:15:26.350Z,6.20
2023-03-13T13:18:16.194Z,3.92
2023-03-13T13:20:50.040Z,3.60
2023-03-13T13:23:26.291Z,2.78
2023-03-13T13:25:56.694Z,4.43
2023-03-13T13:28:35.468Z,3.50
2023-03-13T13:32:03.129Z,3.28
2023-03-13T13:34:31.326Z,4.72
2023-03-13T13:37:23.854Z,2.72
2023-03-13T13:39:53.916Z,3.05
2023-03-13T13:42:31.287Z,3.53
2023-03-13T13:45:17.475Z,4.00
2023-03-13T13:47:48.932Z,3.10
2023-03-13T13:50:27.123Z,2.95
2023-03-13T13:53:43.406Z,3.25
2023-03-13T13:56:29.473Z,3.95
2023-03-13T13:59:00.033Z,3.60
2023-03-13T14:01:28.076Z,3.13
2023-03-13T14:04:22.458Z,3.85
2023-03-13T14:06:53.084Z,4.25
2023-03-13T14:09:54.288Z,3.95
2023-03-13T14:12:31.396Z,5.45
2023-03-13T14:15:23.803Z,4.20
2023-03-13T14:17:53.101Z,5.80
2023-03-13T14:20:24.834Z,5.10
2023-03-13T14:22:54.067Z,5.43
2023-03-13T14:25:24.418Z,5.10
2023-03-13T14:27:54.052Z,5.80
2023-03-13T14:30:24.185Z,4.68
2023-03-13T14:32:52.650Z,3.67
2023-03-13T14:35:22.493Z,4.18
2023-03-13T14:37:53.358Z,3.08
2023-03-13T14:40:27.835Z,3.62
2023-03-13T14:43:00.221Z,3.72
2023-03-13T14:45:33.633Z,4.72
2023-03-13T14:48:17.593Z,3.42
2023-03-13T14:50:45.763Z,4.30
2023-03-13T14:53:18.546Z,3.10
2023-03-13T14:55:47.364Z,3.42
2023-03-13T14:58:30.626Z,6.00
2023-03-13T15:00:59.146Z,3.50
2023-03-13T15:03:32.868Z,5.68
2023-03-13T15:06:05.842Z,4.03
2023-03-13T15:08:36.938Z,4.43
2023-03-13T15:13:46.825Z,6.68
2023-03-13T15:16:22.870Z,4.68
2023-03-13T15:18:52.349Z,3.55
2023-03-13T15:21:23.963Z,3.58
2023-03-13T15:24:00.102Z,3.97
2023-03-13T15:26:29.465Z,3.78
2023-03-13T15:28:57.727Z,3.22
2023-03-13T15:31:29.376Z,4.15
2023-03-13T15:34:00.049Z,3.25
2023-03-13T15:36:29.523Z,5.07
2023-03-13T15:38:58.391Z,4.62
2023-03-13T15:41:26.589Z,5.68
2023-03-13T15:43:57.003Z,5.70
2023-03-13T15:46:26.280Z,3.08
2023-03-13T15:48:54.123Z,4.62
2023-03-13T15:51:22.052Z,4.87
2023-03-13T15:53:50.623Z,3.87
2023-03-13T15:56:21.428Z,5.57
2023-03-13T15:58:51.236Z,3.58
2023-03-13T16:01:19.709Z,3.55
2023-03-13T16:03:48.032Z,4.22
2023-03-13T16:06:28.211Z,3.10
2023-03-13T16:08:56.762Z,3.17
2023-03-13T16:11:25.036Z,3.62
2023-03-13T16:13:53.356Z,3.40
2023-03-13T16:16:28.790Z,3.83
2023-03-13T16:18:58.772Z,3.70
2023-03-13T16:21:31.405Z,6.28
2023-03-13T16:23:59.279Z,5.12
2023-03-13T16:26:30.793Z,4.72
2023-03-13T16:28:59.334Z,4.00
2023-03-13T16:31:31.244Z,3.45
2023-03-13T16:36:31.285Z,3.78
2023-03-13T16:39:01.383Z,4.65
2023-03-13T16:41:29.710Z,3.12
2023-03-13T16:43:57.660Z,3.67
2023-03-13T16:46:38.426Z,3.33
2023-03-13T16:49:08.244Z,4.05
2023-03-13T16:51:36.082Z,3.37
2023-03-13T16:54:06.569Z,3.22
2023-03-13T16:56:37.570Z,4.53
2023-03-13T16:59:13.120Z,3.25
2023-03-13T17:01:42.723Z,4.10
2023-03-13T17:04:10.847Z,4.78
2023-03-13T17:06:44.808Z,3.83
2023-03-13T17:09:16.710Z,3.78
2023-03-13T17:11:45.190Z,3.83
2023-03-13T17:14:13.700Z,3.95
2023-03-13T17:16:43.798Z,4.15
2023-03-13T17:19:14.218Z,3.75
2023-03-13T17:21:43.078Z,4.57
2023-03-13T17:24:10.854Z,3.95
2023-03-13T17:26:39.790Z,3.28
2023-03-13T17:29:13.972Z,3.37
2023-03-13T17:31:42.089Z,2.53
2023-03-13T17:34:13.138Z,3.20
2023-03-13T17:36:41.442Z,3.33
2023-03-13T17:39:14.118Z,4.37
2023-03-13T17:41:42.688Z,5.18
2023-03-13T17:44:11.093Z,5.93
2023-03-13T17:46:47.663Z,6.10
2023-03-13T17:49:18.076Z,8.02
2023-03-13T17:51:47.737Z,8.77
2023-03-13T17:54:16.285Z,8.65
2023-03-13T17:56:45.350Z,9.07
2023-03-13T17:59:18.557Z,11.18
2023-03-13T18:01:46.745Z,11.00
2023-03-13T18:04:14.966Z,10.93
2023-03-13T18:06:47.031Z,9.80
2023-03-13T18:09:21.449Z,10.57
2023-03-13T18:11:50.114Z,10.52
2023-03-13T18:14:18.617Z,8.75
2023-03-13T18:16:48.914Z,11.70
2023-03-13T18:19:21.202Z,7.75
2023-03-13T18:21:55.246Z,9.30
2023-03-13T18:24:23.219Z,6.62
2023-03-13T18:26:51.641Z,7.93
2023-03-13T18:29:26.367Z,8.02
2023-03-13T18:31:58.812Z,8.38
2023-03-13T18:34:27.881Z,7.50
2023-03-13T18:36:57.070Z,7.93
2023-03-13T18:39:25.056Z,7.87
2023-03-13T18:41:52.912Z,8.15
2023-03-13T18:44:21.417Z,7.97
2023-03-13T18:46:51.329Z,8.18
2023-03-13T18:49:22.482Z,7.53
2023-03-13T18:51:54.056Z,8.75
2023-03-13T18:54:22.778Z,10.20
2023-03-13T18:56:51.330Z,9.73
2023-03-13T18:59:21.078Z,9.57
2023-03-13T19:01:49.262Z,6.93
2023-03-13T19:04:18.756Z,7.40
2023-03-13T19:06:47.965Z,7.35
2023-03-13T19:09:41.745Z,6.68
2023-03-13T19:12:07.290Z,5.53
2023-03-13T19:14:35.683Z,7.07
2023-03-13T19:17:07.321Z,7.55
2023-03-13T19:19:35.784Z,8.23
2023-03-13T19:22:04.874Z,6.85
2023-03-13T19:24:32.972Z,7.53
2023-03-13T19:27:01.758Z,7.78
2023-03-13T19:29:36.453Z,6.62
2023-03-13T19:32:07.316Z,7.50
2023-03-13T19:34:35.471Z,6.65
2023-03-13T19:37:03.490Z,6.28
2023-03-13T19:39:32.026Z,6.05
2023-03-13T19:42:00.178Z,5.80
2023-03-13T19:44:28.642Z,8.90
2023-03-13T19:46:57.573Z,9.23
2023-03-13T19:49:25.604Z,5.87
2023-03-13T19:51:54.354Z,6.07
2023-03-13T19:54:24.391Z,6.90
2023-03-13T19:56:53.658Z,5.55
2023-03-13T19:59:29.213Z,6.85
2023-03-13T20:02:03.115Z,6.57
2023-03-13T20:04:31.806Z,6.80
2023-03-13T20:07:00.614Z,5.10
2023-03-13T20:09:29.271Z,6.72
2023-03-13T20:11:57.788Z,6.43
2023-03-13T20:14:25.936Z,6.28
2023-03-13T20:16:54.129Z,6.70
2023-03-13T20:19:24.459Z,5.50
2023-03-13T20:21:52.578Z,6.62
2023-03-13T20:24:20.832Z,5.18
2023-03-13T20:26:49.286Z,5.85
2023-03-13T20:29:17.587Z,5.37
2023-03-13T20:31:45.729Z,6.32
2023-03-13T20:34:14.510Z,5.68
2023-03-13T20:36:42.460Z,5.62
2023-03-13T20:39:10.668Z,6.25
2023-03-13T20:41:38.814Z,5.40
2023-03-13T20:44:06.958Z,5.60
2023-03-13T20:46:35.411Z,6.65
2023-03-13T20:49:03.939Z,5.97
2023-03-13T20:51:33.447Z,5.22
2023-03-13T20:54:01.801Z,4.97
2023-03-13T20:56:30.367Z,6.22
2023-03-13T20:58:58.285Z,7.25
2023-03-13T21:01:27.867Z,7.25
2023-03-13T21:03:56.487Z,4.85
2023-03-13T21:06:25.161Z,5.35
2023-03-13T21:08:53.519Z,5.78
2023-03-13T21:11:23.470Z,5.47
2023-03-13T21:13:51.526Z,5.78
2023-03-13T21:16:20.406Z,5.15
2023-03-13T21:18:48.806Z,8.00
2023-03-13T21:21:19.636Z,8.13
2023-03-13T21:23:47.674Z,5.50
2023-03-13T21:26:16.051Z,5.55
2023-03-13T21:28:44.439Z,6.43
2023-03-13T21:31:18.428Z,6.18
2023-03-13T21:33:47.504Z,5.37
2023-03-13T21:36:17.430Z,5.12
2023-03-13T21:38:46.065Z,7.53
2023-03-13T21:41:17.253Z,7.05
2023-03-13T21:43:45.962Z,5.65
2023-03-13T21:46:16.413Z,4.70
2023-03-13T21:51:18.861Z,5.95
2023-03-13T21:53:46.662Z,4.97
2023-03-13T21:56:15.894Z,4.68
2023-03-13T21:58:48.399Z,6.78
2023-03-13T22:01:16.535Z,6.20
2023-03-13T22:03:44.843Z,5.68
2023-03-13T22:06:18.996Z,6.82
2023-03-13T22:08:49.773Z,5.85
2023-03-13T22:11:18.488Z,6.87
2023-03-13T22:13:46.556Z,6.40
2023-03-13T22:16:14.700Z,5.57
2023-03-13T22:18:43.316Z,5.78
2023-03-13T22:21:11.516Z,7.03
2023-03-13T22:23:41.154Z,4.70
2023-03-13T22:26:10.919Z,5.37
2023-03-13T22:28:39.763Z,5.37
2023-03-13T22:31:08.437Z,8.27
2023-03-13T22:33:37.914Z,5.97
2023-03-13T22:36:06.740Z,7.30
2023-03-13T22:38:38.926Z,6.53
2023-03-13T22:41:11.381Z,4.90
2023-03-13T22:43:39.457Z,6.37
2023-03-13T22:46:08.480Z,5.20
2023-03-13T22:48:37.290Z,7.55
2023-03-13T22:51:13.717Z,5.32
2023-03-13T22:53:42.584Z,5.55
2023-03-13T22:56:12.175Z,7.15
2023-03-13T22:58:40.960Z,6.85
2023-03-13T23:01:14.876Z,5.85
2023-03-13T23:03:42.917Z,6.37
2023-03-13T23:06:19.763Z,7.62
2023-03-13T23:08:47.752Z,6.37
2023-03-13T23:11:17.514Z,5.85
2023-03-13T23:13:45.295Z,6.07
2023-03-13T23:16:13.446Z,8.85
2023-03-13T23:18:42.312Z,7.05
2023-03-13T23:21:13.107Z,5.60
2023-03-13T23:23:42.256Z,6.35
2023-03-13T23:26:13.664Z,6.32
2023-03-13T23:28:43.011Z,6.30
2023-03-13T23:31:16.674Z,6.20
2023-03-13T23:33:45.434Z,7.75
2023-03-13T23:36:18.597Z,6.47
2023-03-13T23:38:51.638Z,5.82
2023-03-13T23:41:21.117Z,6.20
2023-03-13T23:43:49.297Z,7.40
2023-03-13T23:46:26.405Z,6.55
2023-03-13T23:48:56.519Z,5.90
2023-03-13T23:51:25.138Z,6.80
2023-03-13T23:53:53.124Z,6.05
2023-03-13T23:56:22.121Z,6.40
2023-03-13T23:58:49.909Z,6.20
